Time;durP1;ratioP1;P1;durP2;ratioP2;P2;SDS_P1;SDS_P2;PMS_P1;PMS_P2;Temp;Humidity;BMP_temperature;BMP_pressure;BME280_temperature;BME280_humidity;BME280_pressure;Samples;Min_cycle;Max_cycle;Signal;HPM_P1;HPM_P2
2022/12/24 00:01:03;;;;;;;4.53;1.70;;;12.60;99.90;;;12.77;nan;100055.88;5029376;28;20639;-62
2022/12/24 00:03:31;;;;;;;2.97;0.90;;;12.60;99.90;;;12.91;nan;100070.31;5030113;28;20636;-62
2022/12/24 00:05:58;;;;;;;2.57;1.00;;;12.60;99.90;;;12.87;nan;100063.72;5028994;28;20629;-62
2022/12/24 00:08:25;;;;;;;2.00;1.20;;;12.60;99.90;;;12.83;nan;100070.19;5028122;28;20717;-62
2022/12/24 00:10:53;;;;;;;1.40;1.30;;;12.60;99.90;;;12.88;nan;100076.69;5029576;28;20625;-63
2022/12/24 00:13:20;;;;;;;2.07;1.27;;;12.60;99.90;;;12.82;nan;100073.78;5019554;28;20633;-62
2022/12/24 00:15:48;;;;;;;2.83;1.10;;;12.50;99.90;;;12.83;nan;100086.72;5033935;28;20628;-62
2022/12/24 00:18:15;;;;;;;3.90;0.90;;;12.60;99.90;;;12.86;nan;100083.03;5037323;28;21067;-62
2022/12/24 00:20:48;;;;;;;1.30;1.13;;;12.60;99.90;;;12.86;nan;100085.63;5033091;28;21061;-63
2022/12/24 00:23:17;;;;;;;1.83;1.00;;;12.60;99.90;;;12.73;nan;100092.94;5024081;28;20667;-63
2022/12/24 00:25:44;;;;;;;5.23;0.60;;;12.50;99.90;;;12.81;nan;100096.53;5029879;28;21085;-62
2022/12/24 00:28:13;;;;;;;3.20;1.13;;;12.50;99.90;;;12.76;nan;100108.34;5019744;28;20669;-63
2022/12/24 00:30:41;;;;;;;1.80;0.80;;;12.50;99.90;;;12.77;nan;100107.41;5030272;28;20999;-63
2022/12/24 00:33:09;;;;;;;2.77;1.30;;;12.50;99.90;;;12.77;nan;100104.78;5029112;28;20661;-63
2022/12/24 00:35:38;;;;;;;1.47;0.90;;;12.50;99.90;;;12.74;nan;100107.66;5032824;28;20633;-63
2022/12/24 00:38:06;;;;;;;0.60;0.60;;;12.50;99.90;;;12.75;nan;100111.94;5032828;28;20637;-63
2022/12/24 00:40:34;;;;;;;0.60;0.60;;;12.40;99.90;;;12.74;nan;100125.97;5033830;28;21204;-63
2022/12/24 00:43:01;;;;;;;1.80;0.73;;;12.50;99.90;;;12.82;nan;100128.78;5013993;28;20660;-63
2022/12/24 00:45:28;;;;;;;3.17;1.03;;;12.50;99.90;;;12.68;nan;100137.00;5033650;28;20639;-63
2022/12/24 00:47:55;;;;;;;4.20;1.07;;;12.50;99.90;;;12.89;nan;100140.31;5028161;28;21015;-63
2022/12/24 00:50:22;;;;;;;5.50;1.10;;;12.50;99.90;;;12.75;nan;100143.34;5031556;28;20673;-62
2022/12/24 00:52:49;;;;;;;2.37;0.70;;;12.50;99.90;;;12.74;nan;100147.75;5033228;28;20713;-63
2022/12/24 00:55:16;;;;;;;1.67;1.00;;;12.40;99.90;;;12.77;nan;100142.25;5032420;28;21258;-63
2022/12/24 00:57:43;;;;;;;4.37;1.20;;;12.50;99.90;;;12.76;nan;100145.84;5033272;28;20629;-61
2022/12/24 01:00:10;;;;;;;0.83;0.57;;;12.40;99.90;;;12.67;nan;100146.63;5032977;28;20632;-62
2022/12/24 01:02:37;;;;;;;0.83;0.50;;;12.40;99.90;;;12.62;nan;100153.25;5031864;28;20669;-63
2022/12/24 01:05:10;;;;;;;4.57;1.37;;;12.40;99.90;;;12.65;nan;100151.19;5030103;28;20632;-63
2022/12/24 01:07:43;;;;;;;2.20;1.00;;;12.40;99.90;;;12.67;nan;100161.53;5032880;28;20656;-63
2022/12/24 01:10:13;;;;;;;1.60;0.87;;;12.30;99.90;;;12.53;nan;100156.66;5031630;28;20632;-63
2022/12/24 01:12:41;;;;;;;3.33;1.10;;;12.30;99.90;;;12.49;nan;100150.88;5032577;28;20648;-63
2022/12/24 01:15:09;;;;;;;2.60;1.17;;;12.30;99.90;;;12.53;nan;100152.25;5028604;28;21208;-63
2022/12/24 01:17:37;;;;;;;0.40;0.40;;;12.30;99.90;;;12.58;nan;100154.47;5032206;28;20714;-63
2022/12/24 01:20:07;;;;;;;4.13;0.60;;;12.30;99.90;;;12.52;nan;100161.09;5030433;28;20782;-62
2022/12/24 01:22:34;;;;;;;4.93;0.93;;;12.30;99.90;;;12.43;nan;100157.47;5033413;28;21359;-63
2022/12/24 01:25:01;;;;;;;2.23;0.87;;;12.20;99.90;;;12.43;nan;100162.72;5031664;28;20637;-63
2022/12/24 01:27:28;;;;;;;2.40;0.83;;;12.20;99.90;;;12.51;nan;100163.81;5033616;28;21289;-62
2022/12/24 01:29:55;;;;;;;2.33;1.10;;;12.20;99.90;;;12.57;nan;100171.97;5026522;28;20715;-63
2022/12/24 01:32:21;;;;;;;1.97;0.77;;;12.20;99.90;;;12.48;nan;100178.81;5032352;28;20702;-63
2022/12/24 01:34:48;;;;;;;4.30;0.90;;;12.20;99.90;;;12.53;nan;100186.28;5032468;28;20635;-63
2022/12/24 01:37:15;;;;;;;1.23;0.93;;;12.20;99.90;;;12.56;nan;100186.03;5033247;28;21035;-63
2022/12/24 01:39:42;;;;;;;1.73;1.30;;;12.20;99.90;;;12.40;nan;100194.38;5031680;28;20633;-63
2022/12/24 01:45:36;;;;;;;0.90;0.70;;;12.10;99.90;;;12.41;nan;100214.31;4955858;28;20643;-62
2022/12/24 01:48:04;;;;;;;0.97;0.70;;;12.10;99.90;;;12.60;nan;100223.22;5021123;28;21084;-63
2022/12/24 01:50:31;;;;;;;2.10;0.83;;;12.20;99.90;;;12.40;nan;100220.53;5014935;28;20670;-63
2022/12/24 01:52:58;;;;;;;3.10;0.87;;;12.10;99.90;;;12.21;nan;100222.22;5031349;28;20661;-63
2022/12/24 01:55:25;;;;;;;1.97;1.20;;;12.10;99.90;;;12.29;nan;100241.53;5032189;28;21196;-63
2022/12/24 01:57:57;;;;;;;2.03;0.80;;;12.00;99.90;;;12.19;nan;100237.22;5032444;28;20637;-63
2022/12/24 02:00:24;;;;;;;4.83;0.90;;;12.00;99.90;;;12.18;nan;100249.47;5013039;28;21066;-63
2022/12/24 02:02:53;;;;;;;1.27;0.90;;;12.00;99.90;;;12.21;nan;100251.00;5018113;28;20672;-63
2022/12/24 02:05:34;;;;;;;1.70;0.60;;;12.00;99.90;;;12.14;nan;100255.06;5029893;28;20640;-63
2022/12/24 02:08:03;;;;;;;0.80;0.80;;;11.90;99.90;;;12.30;nan;100255.47;5025104;28;20667;-63
2022/12/24 02:10:31;;;;;;;6.33;0.80;;;12.00;99.90;;;12.20;nan;100254.59;5030823;28;20640;-62
2022/12/24 02:12:59;;;;;;;3.57;1.10;;;11.90;99.90;;;12.14;nan;100249.84;5031920;28;20636;-63
2022/12/24 02:15:38;;;;;;;0.97;0.83;;;11.90;99.90;;;11.96;nan;100254.03;5031618;28;20643;-63
2022/12/24 02:18:28;;;;;;;2.83;0.93;;;11.90;99.90;;;12.03;nan;100249.94;5023198;28;20640;-62
2022/12/24 02:21:15;;;;;;;0.80;0.80;;;11.80;99.90;;;12.11;nan;100240.50;5012649;28;21211;-63
2022/12/24 02:24:27;;;;;;;2.63;1.10;;;11.90;99.90;;;12.01;nan;100259.72;5031047;28;20645;-62
2022/12/24 02:27:31;;;;;;;2.10;0.73;;;11.80;99.90;;;12.15;nan;100254.13;5012581;28;20633;-62
2022/12/24 02:30:13;;;;;;;2.13;0.77;;;11.90;99.90;;;12.13;nan;100243.81;5013950;28;20667;-62
2022/12/24 02:32:43;;;;;;;0.40;0.40;;;11.80;99.90;;;12.02;nan;100243.03;5013063;28;20656;-63
2022/12/24 02:35:53;;;;;;;1.87;0.80;;;11.90;99.90;;;12.19;nan;100266.00;5029574;28;21065;-63
2022/12/24 02:38:43;;;;;;;1.33;0.83;;;11.90;99.90;;;12.20;nan;100258.00;5013010;28;20671;-62
2022/12/24 02:41:18;;;;;;;7.90;1.60;;;11.90;99.90;;;12.23;nan;100255.16;5014044;28;20636;-63
2022/12/24 02:43:47;;;;;;;4.93;1.50;;;11.90;99.90;;;12.24;nan;100262.06;5012426;28;21184;-63
2022/12/24 02:46:24;;;;;;;3.30;1.23;;;11.90;99.90;;;12.19;nan;100260.75;5012185;28;21192;-63
2022/12/24 02:48:52;;;;;;;3.87;0.90;;;11.90;99.90;;;12.22;nan;100265.75;5028752;28;20664;-63
2022/12/24 02:51:24;;;;;;;1.10;0.80;;;11.90;99.90;;;12.21;nan;100246.59;5028749;28;21103;-63
2022/12/24 02:53:51;;;;;;;1.27;0.77;;;11.90;99.90;;;12.07;nan;100257.41;5031595;28;21115;-63
2022/12/24 02:56:41;;;;;;;6.23;1.30;;;11.90;99.90;;;12.09;nan;100257.28;5030408;28;21285;-63
2022/12/24 02:59:47;;;;;;;1.27;0.83;;;11.90;99.90;;;12.14;nan;100271.59;4994765;28;20718;-63
2022/12/24 03:02:51;;;;;;;3.10;1.20;;;11.90;99.90;;;12.20;nan;100267.66;5032732;22;20698;-66
2022/12/24 03:06:12;;;;;;;3.03;1.10;;;11.90;99.90;;;12.17;nan;100270.53;5004994;28;20641;-67
2022/12/24 03:08:54;;;;;;;8.90;1.23;;;11.90;99.90;;;12.22;nan;100271.78;4991318;28;21028;-67
2022/12/24 03:11:21;;;;;;;4.13;1.00;;;11.90;99.90;;;12.23;nan;100277.84;4990769;28;20646;-66
2022/12/24 03:13:49;;;;;;;2.93;1.20;;;11.90;99.90;;;12.19;nan;100282.53;4983350;28;20634;-67
2022/12/24 03:16:23;;;;;;;1.10;1.10;;;11.90;99.90;;;12.28;nan;100286.16;4991275;28;20638;-66
2022/12/24 03:18:52;;;;;;;2.07;0.77;;;11.90;99.90;;;12.15;nan;100273.28;4953715;28;20708;-67
2022/12/24 03:21:23;;;;;;;2.03;0.40;;;11.90;99.90;;;12.13;nan;100271.75;4990014;28;20700;-67
2022/12/24 03:23:50;;;;;;;1.17;1.00;;;11.90;99.90;;;12.20;nan;100273.69;4961225;28;20635;-67
2022/12/24 03:26:19;;;;;;;2.33;1.37;;;11.90;99.90;;;12.34;nan;100269.94;4977863;28;21012;-67
2022/12/24 03:28:47;;;;;;;1.40;0.93;;;12.00;99.90;;;12.16;nan;100280.16;4969735;28;20682;-67
2022/12/24 03:31:14;;;;;;;1.00;0.83;;;11.90;99.90;;;12.15;nan;100288.13;4971571;28;20639;-67
2022/12/24 03:33:41;;;;;;;9.17;1.00;;;11.90;99.90;;;12.10;nan;100293.75;4973843;28;20655;-67
2022/12/24 03:36:09;;;;;;;8.20;1.33;;;11.90;99.90;;;12.17;nan;100294.06;4967354;28;21191;-67
2022/12/24 03:38:36;;;;;;;0.90;0.90;;;11.90;99.90;;;12.17;nan;100289.66;4971272;28;20751;-66
2022/12/24 03:41:03;;;;;;;1.33;1.17;;;11.90;99.90;;;12.20;nan;100294.63;4958839;28;20638;-67
2022/12/24 03:43:30;;;;;;;7.93;1.27;;;11.90;99.90;;;12.27;nan;100290.53;4988903;28;20670;-67
2022/12/24 03:45:57;;;;;;;1.33;0.90;;;11.90;99.90;;;12.32;nan;100298.00;4973635;28;20623;-66
2022/12/24 03:48:24;;;;;;;4.00;1.13;;;11.90;99.90;;;12.24;nan;100296.06;4980577;28;20671;-67
2022/12/24 03:50:58;;;;;;;1.77;1.10;;;11.90;99.90;;;12.22;nan;100290.09;4966269;28;21194;-67
2022/12/24 03:53:25;;;;;;;4.73;1.20;;;11.90;99.90;;;12.21;nan;100296.28;4940198;28;20654;-66
2022/12/24 03:55:52;;;;;;;8.57;1.40;;;11.90;99.90;;;12.25;nan;100300.31;4954143;28;20643;-67
2022/12/24 03:58:19;;;;;;;1.63;1.00;;;11.90;99.90;;;12.30;nan;100302.53;4974658;28;21018;-66
2022/12/24 04:00:45;;;;;;;1.33;0.70;;;12.00;99.90;;;12.36;nan;100296.78;4971896;28;20823;-66
2022/12/24 04:03:12;;;;;;;7.90;1.60;;;12.00;99.90;;;12.33;nan;100290.03;4969964;28;20682;-66
2022/12/24 04:05:39;;;;;;;2.30;1.37;;;12.00;99.90;;;12.42;nan;100299.72;4990826;28;20626;-67
2022/12/24 04:08:06;;;;;;;1.10;0.87;;;12.00;99.90;;;12.34;nan;100310.00;4989800;28;21043;-67
2022/12/24 04:10:33;;;;;;;3.30;1.23;;;12.00;99.90;;;12.23;nan;100299.63;4994552;28;20629;-67
2022/12/24 04:13:00;;;;;;;8.20;1.50;;;12.00;99.90;;;12.34;nan;100296.09;4994508;28;20805;-66
2022/12/24 04:15:27;;;;;;;3.47;1.10;;;12.00;99.90;;;12.21;nan;100288.44;4977255;28;20618;-67
2022/12/24 04:17:54;;;;;;;1.57;0.70;;;12.00;99.90;;;12.22;nan;100302.38;4972948;28;20626;-64
2022/12/24 04:20:21;;;;;;;2.30;0.93;;;11.90;99.90;;;12.28;nan;100307.91;4993228;28;20642;-67
2022/12/24 04:22:48;;;;;;;1.97;0.90;;;12.00;99.90;;;12.38;nan;100308.78;4962605;28;20659;-67
2022/12/24 04:25:15;;;;;;;4.20;1.30;;;12.00;99.90;;;12.39;nan;100317.47;4982034;28;20653;-66
2022/12/24 04:27:42;;;;;;;1.70;0.90;;;12.00;99.90;;;12.35;nan;100318.69;4968330;28;20990;-67
2022/12/24 04:30:09;;;;;;;1.13;0.70;;;12.00;99.90;;;12.41;nan;100329.44;4961971;28;20663;-67
2022/12/24 04:32:36;;;;;;;1.47;0.90;;;12.00;99.90;;;12.33;nan;100331.88;4976431;28;20695;-67
2022/12/24 04:35:03;;;;;;;4.60;1.17;;;12.00;99.90;;;12.34;nan;100325.72;4974171;28;20682;-67
2022/12/24 04:37:32;;;;;;;10.43;1.23;;;12.00;99.90;;;12.33;nan;100326.66;4946843;28;20638;-67
2022/12/24 04:39:59;;;;;;;5.13;1.60;;;12.00;99.90;;;12.35;nan;100331.78;4980781;28;21212;-67
2022/12/24 04:42:26;;;;;;;1.23;0.80;;;12.00;99.90;;;12.41;nan;100326.81;4960944;28;20736;-66
2022/12/24 04:44:53;;;;;;;3.20;1.03;;;12.00;99.90;;;12.36;nan;100326.41;4988025;28;20704;-67
2022/12/24 04:47:20;;;;;;;4.07;1.07;;;12.00;99.90;;;12.27;nan;100327.16;4990601;28;20642;-66
2022/12/24 04:49:46;;;;;;;3.97;1.13;;;12.00;99.90;;;12.33;nan;100321.41;4958147;28;20658;-67
2022/12/24 04:52:13;;;;;;;4.90;1.20;;;12.00;99.90;;;12.30;nan;100321.69;4974727;28;20667;-67
2022/12/24 04:54:40;;;;;;;2.27;1.07;;;12.00;99.90;;;12.33;nan;100324.03;4957699;28;21035;-67
2022/12/24 04:57:07;;;;;;;4.53;1.27;;;12.00;99.90;;;12.18;nan;100322.69;4988864;28;20645;-67
2022/12/24 04:59:34;;;;;;;3.23;1.03;;;12.00;99.90;;;12.08;nan;100319.19;4973773;28;20677;-67
2022/12/24 05:02:01;;;;;;;1.83;1.03;;;11.90;99.90;;;12.10;nan;100330.34;4982223;28;20701;-67
2022/12/24 05:04:28;;;;;;;5.50;1.40;;;11.90;99.90;;;12.08;nan;100327.03;4973035;28;20724;-67
2022/12/24 05:06:55;;;;;;;3.83;1.20;;;11.90;99.90;;;12.12;nan;100323.22;4961771;28;21211;-66
2022/12/24 05:09:22;;;;;;;4.50;1.47;;;11.80;99.90;;;11.93;nan;100328.31;4973553;28;21254;-67
2022/12/24 05:11:49;;;;;;;5.90;1.20;;;11.80;99.90;;;11.96;nan;100320.22;4956893;28;20659;-66
2022/12/24 05:14:16;;;;;;;5.27;1.13;;;11.70;99.90;;;12.09;nan;100322.66;4986746;28;20639;-67
2022/12/24 05:16:43;;;;;;;1.60;1.00;;;11.80;99.90;;;12.04;nan;100328.25;4983970;28;20666;-67
2022/12/24 05:19:10;;;;;;;1.27;1.10;;;11.70;99.90;;;11.99;nan;100329.59;4987304;28;20642;-67
2022/12/24 05:21:37;;;;;;;7.80;1.50;;;11.70;99.90;;;12.00;nan;100326.84;4991284;28;20634;-67
2022/12/24 05:26:55;;;;;;;2.97;0.73;;;11.70;99.90;;;12.08;nan;100329.66;4982609;28;20635;-66
2022/12/24 05:29:25;;;;;;;5.90;1.40;;;11.70;99.90;;;12.09;nan;100323.47;4974228;28;20670;-67
2022/12/24 05:31:52;;;;;;;4.73;1.43;;;11.80;99.90;;;11.87;nan;100326.19;4986396;28;20724;-67
2022/12/24 05:34:19;;;;;;;1.37;0.63;;;11.70;99.90;;;11.95;nan;100322.94;4992989;28;20635;-67
2022/12/24 05:36:46;;;;;;;2.73;1.13;;;11.70;99.90;;;11.95;nan;100320.31;4978256;28;21417;-67
2022/12/24 05:39:17;;;;;;;2.53;0.87;;;11.70;99.90;;;11.90;nan;100325.97;4939782;28;20630;-67
2022/12/24 05:41:45;;;;;;;2.50;1.10;;;11.70;99.90;;;11.93;nan;100353.63;4973461;28;20673;-67
2022/12/24 05:44:13;;;;;;;2.93;1.57;;;11.70;99.90;;;11.88;nan;100355.78;4975479;28;21006;-68
2022/12/24 05:46:41;;;;;;;1.53;0.97;;;11.60;99.90;;;11.89;nan;100352.19;4970020;28;20670;-67
2022/12/24 05:49:08;;;;;;;3.40;1.33;;;11.60;99.90;;;11.90;nan;100352.09;4991502;28;20666;-67
2022/12/24 05:51:35;;;;;;;7.03;1.57;;;11.60;99.90;;;11.82;nan;100354.50;4978273;28;20631;-65
2022/12/24 05:54:03;;;;;;;2.87;1.40;;;11.60;99.90;;;11.81;nan;100367.69;4973831;28;20670;-68
2022/12/24 05:56:30;;;;;;;5.60;1.70;;;11.50;99.90;;;11.81;nan;100362.47;4964384;28;20641;-68
2022/12/24 05:58:57;;;;;;;7.50;1.23;;;11.50;99.90;;;11.86;nan;100361.13;4966810;28;20638;-67
2022/12/24 06:01:25;;;;;;;2.07;1.20;;;11.60;99.90;;;11.85;nan;100362.09;4964097;28;20649;-67
2022/12/24 06:03:52;;;;;;;3.80;1.43;;;11.60;99.90;;;11.84;nan;100357.81;4975014;28;20653;-68
2022/12/24 06:06:23;;;;;;;3.50;1.30;;;11.60;99.90;;;11.85;nan;100361.25;4957696;28;20638;-67
2022/12/24 06:08:52;;;;;;;3.37;1.20;;;11.50;99.90;;;11.80;nan;100353.78;4959115;28;20627;-67
2022/12/24 06:11:22;;;;;;;11.07;1.77;;;11.50;99.90;;;11.66;nan;100348.81;4975085;28;20697;-68
2022/12/24 06:13:51;;;;;;;0.97;0.97;;;11.50;99.90;;;11.68;nan;100347.78;4991502;28;21150;-66
2022/12/24 06:16:20;;;;;;;1.17;0.97;;;11.50;99.90;;;11.74;nan;100353.44;4972653;28;20644;-67
2022/12/24 06:18:47;;;;;;;5.10;2.10;;;11.50;99.90;;;11.72;nan;100350.97;4953028;28;21014;-67
2022/12/24 06:21:15;;;;;;;2.97;1.40;;;11.50;99.90;;;11.77;nan;100363.66;4973577;28;20640;-67
2022/12/24 06:23:43;;;;;;;6.50;1.27;;;11.50;99.90;;;11.79;nan;100365.22;4955577;28;21251;-66
2022/12/24 06:26:14;;;;;;;9.67;1.20;;;11.50;99.90;;;11.71;nan;100364.16;4985738;28;21013;-67
2022/12/24 06:28:43;;;;;;;4.87;1.10;;;11.50;99.90;;;11.76;nan;100367.22;4988607;28;20716;-67
2022/12/24 06:31:16;;;;;;;6.00;1.17;;;11.50;99.90;;;11.77;nan;100376.72;4984486;28;20615;-67
2022/12/24 06:33:43;;;;;;;4.83;1.57;;;11.50;99.90;;;11.73;nan;100384.00;4954349;28;20725;-68
2022/12/24 06:36:18;;;;;;;3.63;0.90;;;11.50;99.90;;;11.70;nan;100365.94;4979821;28;20808;-67
2022/12/24 06:38:46;;;;;;;18.13;1.67;;;11.50;99.90;;;11.80;nan;100379.91;4974700;28;20639;-67
2022/12/24 06:41:14;;;;;;;8.23;1.60;;;11.50;99.90;;;11.64;nan;100377.69;4972116;28;20651;-67
2022/12/24 06:43:46;;;;;;;9.63;1.60;;;11.50;99.90;;;11.67;nan;100394.94;4965292;28;20670;-67
2022/12/24 06:46:14;;;;;;;1.70;0.80;;;11.50;99.90;;;11.85;nan;100398.69;4985039;28;20638;-67
2022/12/24 06:48:44;;;;;;;7.97;1.00;;;11.50;99.90;;;11.80;nan;100386.97;4964726;28;20693;-67
2022/12/24 06:51:13;;;;;;;3.37;1.37;;;11.50;99.90;;;11.79;nan;100404.41;4984995;28;20663;-65
2022/12/24 06:53:40;;;;;;;4.83;1.00;;;11.50;99.90;;;11.73;nan;100404.91;4988438;28;20724;-67
2022/12/24 06:56:10;;;;;;;4.80;1.37;;;11.50;99.90;;;11.73;nan;100409.31;4990545;28;20643;-67
2022/12/24 06:58:38;;;;;;;10.40;2.10;;;11.50;99.90;;;11.81;nan;100414.75;4984365;28;20650;-68
2022/12/24 07:01:08;;;;;;;2.37;1.00;;;11.50;99.90;;;11.80;nan;100413.91;4957591;28;20643;-67
2022/12/24 07:03:35;;;;;;;5.83;1.53;;;11.50;99.90;;;11.75;nan;100428.31;5001316;28;20680;-67
2022/12/24 07:06:02;;;;;;;7.23;1.63;;;11.50;99.90;;;11.75;nan;100416.06;4973940;28;20673;-67
2022/12/24 07:08:32;;;;;;;2.40;1.50;;;11.50;99.90;;;11.87;nan;100422.94;4979100;28;20636;-67
2022/12/24 07:10:59;;;;;;;11.03;2.00;;;11.60;99.90;;;11.92;nan;100423.41;4962918;28;20670;-67
2022/12/24 07:13:26;;;;;;;3.43;1.20;;;11.60;99.90;;;11.91;nan;100431.34;4990647;28;20984;-67
2022/12/24 07:16:02;;;;;;;4.60;1.87;;;11.60;99.90;;;11.84;nan;100422.34;4992050;28;20634;-67
2022/12/24 07:18:30;;;;;;;4.73;1.70;;;11.60;99.90;;;11.83;nan;100421.50;4983800;28;21057;-67
2022/12/24 07:20:57;;;;;;;1.43;1.00;;;11.60;99.90;;;11.81;nan;100426.03;4979224;28;20737;-67
2022/12/24 07:23:25;;;;;;;6.90;1.60;;;11.50;99.90;;;11.83;nan;100426.75;4970104;28;20674;-67
2022/12/24 07:25:52;;;;;;;4.20;1.23;;;11.60;99.90;;;11.85;nan;100419.59;4965587;28;20639;-67
2022/12/24 07:28:19;;;;;;;1.37;1.00;;;11.60;99.90;;;11.82;nan;100432.91;4984882;28;20639;-67
2022/12/24 07:30:53;;;;;;;4.10;1.27;;;11.50;99.90;;;11.87;nan;100436.00;4973866;28;20712;-67
2022/12/24 07:33:20;;;;;;;3.73;1.70;;;11.60;99.90;;;11.90;nan;100438.38;4978406;28;20660;-67
2022/12/24 07:35:47;;;;;;;4.43;1.07;;;11.60;99.90;;;11.95;nan;100438.81;4983309;28;21060;-67
2022/12/24 07:38:21;;;;;;;3.43;1.03;;;11.60;99.90;;;12.00;nan;100446.28;4963727;28;20632;-68
2022/12/24 07:40:48;;;;;;;14.67;1.63;;;11.70;99.90;;;11.95;nan;100443.22;4972415;28;20635;-66
2022/12/24 07:43:15;;;;;;;1.70;1.00;;;11.60;99.90;;;11.93;nan;100453.81;4988299;28;20662;-67
2022/12/24 07:45:42;;;;;;;5.20;1.20;;;11.70;99.90;;;11.98;nan;100461.28;4990145;28;20614;-67
2022/12/24 07:48:09;;;;;;;1.27;0.90;;;11.70;99.90;;;11.97;nan;100455.22;4948723;28;20661;-67
2022/12/24 07:50:36;;;;;;;8.93;1.73;;;11.70;99.90;;;12.10;nan;100450.66;4966993;28;21082;-67
2022/12/24 07:53:03;;;;;;;5.90;1.60;;;11.70;99.90;;;12.07;nan;100457.94;4957876;28;20662;-66
2022/12/24 07:55:30;;;;;;;3.83;1.10;;;11.80;99.90;;;12.06;nan;100459.72;4956777;28;20632;-67
2022/12/24 07:57:57;;;;;;;8.80;1.87;;;11.70;99.90;;;12.13;nan;100466.13;4990064;28;20623;-67
2022/12/24 08:00:23;;;;;;;1.73;1.03;;;11.80;99.90;;;12.16;nan;100478.13;4953211;28;20639;-66
2022/12/24 08:02:50;;;;;;;3.50;1.13;;;11.80;99.90;;;12.08;nan;100478.72;4974210;28;21042;-67
2022/12/24 08:05:18;;;;;;;1.53;0.80;;;11.80;99.90;;;12.20;nan;100469.06;4990503;28;20642;-67
2022/12/24 08:07:44;;;;;;;4.77;1.97;;;11.80;99.90;;;12.18;nan;100476.22;4972962;28;20634;-67
2022/12/24 08:10:11;;;;;;;9.87;2.17;;;11.90;99.90;;;12.28;nan;100477.94;4990723;28;21102;-67
2022/12/24 08:12:38;;;;;;;2.57;1.43;;;11.90;99.90;;;12.37;nan;100477.19;4990460;28;20650;-67
2022/12/24 08:15:06;;;;;;;4.83;2.20;;;12.00;99.90;;;12.25;nan;100493.03;4987571;28;20627;-67
2022/12/24 08:17:33;;;;;;;11.63;1.87;;;12.00;99.90;;;12.44;nan;100496.66;4969599;28;20623;-67
2022/12/24 08:20:00;;;;;;;7.30;1.67;;;12.00;99.90;;;12.42;nan;100492.50;4974808;28;20649;-67
2022/12/24 08:22:27;;;;;;;9.87;1.97;;;12.00;99.90;;;12.50;nan;100499.75;4970767;28;21497;-67
2022/12/24 08:24:53;;;;;;;4.40;1.40;;;12.10;99.90;;;12.52;nan;100500.44;4948054;28;20692;-64
2022/12/24 08:27:21;;;;;;;4.73;1.37;;;12.10;99.90;;;12.45;nan;100489.66;4955578;28;20655;-66
2022/12/24 08:29:47;;;;;;;5.50;1.03;;;12.10;99.90;;;12.65;nan;100488.81;4957048;28;20726;-67
2022/12/24 08:32:14;;;;;;;2.80;1.17;;;12.20;99.90;;;12.63;nan;100488.13;4963128;28;20660;-67
2022/12/24 08:34:41;;;;;;;4.27;1.70;;;12.20;99.90;;;12.58;nan;100481.63;4970829;28;20615;-67
2022/12/24 08:37:08;;;;;;;7.60;1.87;;;12.30;99.90;;;12.74;nan;100492.47;4968691;28;20634;-68
2022/12/24 08:39:35;;;;;;;3.63;1.30;;;12.30;99.90;;;12.75;nan;100489.75;4966643;28;20639;-67
2022/12/24 08:42:02;;;;;;;8.93;1.70;;;12.30;99.90;;;12.89;nan;100491.19;4980931;28;20669;-67
2022/12/24 08:44:30;;;;;;;3.50;1.20;;;12.40;99.90;;;13.04;nan;100479.44;4981496;28;20626;-67
2022/12/24 08:46:57;;;;;;;5.20;1.50;;;12.50;99.90;;;13.28;nan;100495.75;4953918;28;20638;-67
2022/12/24 08:49:23;;;;;;;2.30;1.50;;;12.60;99.90;;;13.83;nan;100474.28;4953852;28;21371;-65
2022/12/24 08:51:51;;;;;;;4.17;1.73;;;12.90;99.90;;;14.15;nan;100488.97;4973167;28;21011;-67
2022/12/24 08:54:18;;;;;;;0.83;0.83;;;13.20;99.90;;;14.60;nan;100495.38;4973030;28;20633;-67
2022/12/24 08:56:45;;;;;;;4.73;1.20;;;13.50;99.90;;;14.97;nan;100498.91;4993093;28;20621;-66
2022/12/24 08:59:12;;;;;;;1.57;1.07;;;13.80;99.90;;;15.81;nan;100489.22;4961827;28;20640;-67
2022/12/24 09:01:39;;;;;;;3.60;1.17;;;14.20;99.90;;;17.10;nan;100493.06;4957754;28;20611;-67
2022/12/24 09:04:06;;;;;;;3.83;0.83;;;15.00;99.90;;;17.14;nan;100504.94;5069257;23;20688;-67
2022/12/24 09:06:33;;;;;;;9.87;1.97;;;15.50;99.90;;;16.95;nan;100513.88;5033132;28;20673;-67
2022/12/24 09:09:00;;;;;;;1.83;1.17;;;15.70;99.90;;;17.00;nan;100516.88;5044509;28;20613;-66
2022/12/24 09:11:27;;;;;;;5.47;1.50;;;15.70;99.90;;;16.77;nan;100515.69;5047464;28;20672;-66
2022/12/24 09:13:54;;;;;;;4.70;1.20;;;15.60;99.90;;;16.31;nan;100514.13;5029748;28;20737;-66
2022/12/24 09:16:21;;;;;;;5.13;1.23;;;15.50;99.90;;;15.93;nan;100528.34;5024194;28;20624;-67
2022/12/24 09:18:48;;;;;;;2.03;1.03;;;15.20;99.90;;;15.66;nan;100527.50;5032484;28;20600;-67
2022/12/24 09:21:16;;;;;;;0.90;0.70;;;15.00;99.90;;;15.56;nan;100531.97;5031877;28;20717;-66
2022/12/24 09:23:46;;;;;;;5.03;1.50;;;14.90;99.90;;;15.13;nan;100540.38;5030736;28;20656;-68
2022/12/24 09:26:21;;;;;;;5.57;1.47;;;14.80;99.90;;;15.37;nan;100546.84;5031914;28;21029;-67
2022/12/24 09:28:48;;;;;;;4.77;1.30;;;14.70;99.90;;;15.54;nan;100553.97;5029978;28;20644;-66
2022/12/24 09:31:16;;;;;;;7.03;1.20;;;14.70;99.90;;;15.47;nan;100544.19;5013782;28;20792;-68
2022/12/24 09:33:46;;;;;;;4.67;1.27;;;14.70;99.90;;;15.37;nan;100554.72;5032029;28;20655;-66
2022/12/24 09:36:14;;;;;;;7.23;1.90;;;14.60;99.90;;;15.09;nan;100560.00;5031727;28;20625;-67
2022/12/24 09:38:41;;;;;;;7.87;1.60;;;14.50;99.90;;;15.11;nan;100564.16;5032310;28;20615;-67
2022/12/24 09:41:57;;;;;;;1.70;0.87;;;14.40;99.90;;;15.43;nan;100569.13;5031412;28;20644;-67
2022/12/24 09:44:57;;;;;;;7.83;1.37;;;14.50;99.90;;;15.14;nan;100571.75;5031482;28;20713;-67
2022/12/24 09:47:33;;;;;;;3.43;1.40;;;14.60;99.90;;;15.29;nan;100577.44;5032186;28;20633;-67
2022/12/24 09:50:04;;;;;;;5.40;1.73;;;14.60;99.90;;;15.33;nan;100576.97;5010419;28;20672;-68
2022/12/24 09:52:40;;;;;;;4.33;1.50;;;14.60;99.90;;;15.36;nan;100584.59;5015235;28;20661;-67
2022/12/24 09:55:24;;;;;;;7.43;2.03;;;14.70;99.90;;;15.28;nan;100588.91;5013702;28;20682;-67
2022/12/24 09:57:53;;;;;;;1.70;1.40;;;14.60;99.90;;;15.15;nan;100591.00;5005727;28;21259;-69
2022/12/24 10:00:29;;;;;;;7.00;1.70;;;14.50;99.90;;;15.33;nan;100590.13;5031195;28;21184;-68
2022/12/24 10:02:56;;;;;;;7.03;2.50;;;14.60;99.90;;;15.30;nan;100589.59;5022477;28;21270;-70
2022/12/24 10:05:55;;;;;;;16.20;2.07;;;14.60;99.90;;;15.18;nan;100594.16;5010082;28;20633;-67
2022/12/24 10:08:51;;;;;;;8.30;1.60;;;14.50;99.90;;;14.95;nan;100603.31;5012043;28;20655;-67
2022/12/24 10:11:49;;;;;;;4.70;1.47;;;14.40;99.90;;;14.87;nan;100597.91;5030859;28;20679;-70
2022/12/24 10:14:25;;;;;;;6.17;1.87;;;14.40;99.90;;;14.71;nan;100603.72;5027292;28;20653;-66
2022/12/24 10:17:36;;;;;;;3.47;1.40;;;14.20;99.90;;;14.71;nan;100600.28;5020775;28;20683;-66
2022/12/24 10:20:41;;;;;;;2.87;1.40;;;14.10;99.90;;;14.65;nan;100606.88;5025363;28;20629;-67
2022/12/24 10:23:56;;;;;;;7.90;2.10;;;14.10;99.90;;;14.63;nan;100600.94;5027887;28;20745;-66
2022/12/24 10:26:28;;;;;;;3.50;1.57;;;14.10;99.90;;;14.69;nan;100600.38;5005179;28;20649;-63
2022/12/24 10:29:05;;;;;;;2.10;1.67;;;14.10;99.90;;;14.76;nan;100601.50;5002303;28;20713;-66
2022/12/24 10:31:36;;;;;;;2.00;1.30;;;14.10;99.90;;;14.82;nan;100604.56;5013746;28;20656;-67
2022/12/24 10:34:17;;;;;;;3.17;1.63;;;14.20;99.90;;;15.06;nan;100603.16;5025986;28;21267;-67
2022/12/24 10:36:44;;;;;;;8.10;1.50;;;14.20;99.90;;;14.94;nan;100603.44;5026451;28;20687;-67
2022/12/24 10:39:20;;;;;;;3.17;1.43;;;14.30;99.90;;;14.84;nan;100611.34;5031211;28;20625;-67
2022/12/24 10:41:50;;;;;;;5.63;0.90;;;14.30;99.90;;;14.89;nan;100605.66;5013776;28;20639;-67
2022/12/24 10:44:24;;;;;;;0.30;0.30;;;14.20;99.90;;;14.62;nan;100606.34;5023721;28;20742;-66
2022/12/24 10:46:53;;;;;;;1.83;0.97;;;14.20;99.90;;;14.54;nan;100616.69;5022773;28;20707;-67